createdAt,value
2022-12-03T00:02:23.615Z,4.10
2022-12-03T00:04:51.582Z,3.72
2022-12-03T00:07:18.604Z,3.60
2022-12-03T00:09:45.401Z,3.87
2022-12-03T00:12:12.266Z,3.47
2022-12-03T00:14:52.699Z,4.45
2022-12-03T00:17:19.994Z,3.88
2022-12-03T00:19:46.769Z,4.50
2022-12-03T00:22:13.648Z,4.37
2022-12-03T00:24:40.458Z,4.85
2022-12-03T00:27:07.449Z,4.50
2022-12-03T00:29:34.631Z,4.47
2022-12-03T00:32:01.695Z,4.28
2022-12-03T00:34:28.718Z,4.10
2022-12-03T00:36:55.583Z,4.30
2022-12-03T00:39:22.478Z,4.55
2022-12-03T00:41:49.468Z,4.22
2022-12-03T00:44:16.277Z,4.65
2022-12-03T00:46:43.875Z,4.47
2022-12-03T00:49:10.858Z,4.90
2022-12-03T00:51:37.908Z,4.57
2022-12-03T00:54:04.969Z,4.53
2022-12-03T00:56:32.010Z,5.25
2022-12-03T00:58:58.791Z,4.60
2022-12-03T01:01:25.711Z,4.43
2022-12-03T01:03:52.581Z,4.88
2022-12-03T01:06:21.005Z,4.35
2022-12-03T01:08:47.854Z,4.82
2022-12-03T01:11:14.611Z,4.33
2022-12-03T01:13:41.974Z,4.40
2022-12-03T01:16:08.916Z,4.35
2022-12-03T01:18:35.738Z,4.45
2022-12-03T01:21:02.578Z,4.35
2022-12-03T01:23:29.307Z,4.20
2022-12-03T01:25:56.149Z,4.55
2022-12-03T01:28:22.869Z,4.70
2022-12-03T01:30:49.814Z,4.30
2022-12-03T01:33:16.744Z,5.93
2022-12-03T01:35:43.552Z,4.77
2022-12-03T01:38:10.332Z,5.90
2022-12-03T01:40:37.271Z,6.88
2022-12-03T01:43:04.114Z,5.50
2022-12-03T01:45:31.110Z,6.43
2022-12-03T01:47:57.925Z,5.53
2022-12-03T01:50:31.854Z,5.30
2022-12-03T01:53:01.678Z,5.10
2022-12-03T01:55:29.355Z,4.97
2022-12-03T01:57:59.157Z,4.78
2022-12-03T02:00:28.435Z,4.90
2022-12-03T02:03:00.374Z,4.40
2022-12-03T02:05:30.763Z,5.25
2022-12-03T02:07:59.054Z,4.53
2022-12-03T02:10:30.676Z,4.50
2022-12-03T02:13:00.113Z,4.43
2022-12-03T02:15:27.263Z,4.50
2022-12-03T02:17:54.467Z,4.15
2022-12-03T02:20:22.019Z,3.95
2022-12-03T02:23:07.468Z,4.13
2022-12-03T02:25:36.587Z,4.17
2022-12-03T02:28:06.124Z,4.15
2022-12-03T02:30:33.835Z,4.18
2022-12-03T02:33:01.835Z,4.85
2022-12-03T02:35:34.974Z,4.28
2022-12-03T02:38:24.921Z,4.40
2022-12-03T02:40:55.778Z,4.22
2022-12-03T02:43:24.139Z,4.82
2022-12-03T02:45:54.487Z,4.20
2022-12-03T02:48:27.027Z,4.18
2022-12-03T02:50:57.499Z,3.40
2022-12-03T02:53:28.329Z,3.88
2022-12-03T02:55:58.107Z,3.97
2022-12-03T02:58:27.408Z,3.85
2022-12-03T03:00:55.700Z,3.65
2022-12-03T03:03:26.028Z,3.80
2022-12-03T03:05:54.128Z,4.10
2022-12-03T03:08:21.028Z,4.05
2022-12-03T03:10:48.399Z,3.85
2022-12-03T03:13:19.317Z,3.75
2022-12-03T03:15:46.360Z,3.67
2022-12-03T03:18:15.611Z,3.95
2022-12-03T03:20:43.581Z,3.83
2022-12-03T03:23:16.364Z,4.18
2022-12-03T03:25:47.080Z,4.63
2022-12-03T03:28:14.949Z,3.70
2022-12-03T03:30:43.471Z,3.90
2022-12-03T03:33:12.692Z,3.90
2022-12-03T03:35:40.465Z,3.50
2022-12-03T03:38:08.672Z,3.92
2022-12-03T03:40:36.523Z,3.60
2022-12-03T03:43:03.525Z,3.70
2022-12-03T03:45:30.439Z,3.90
2022-12-03T03:47:59.933Z,3.90
2022-12-03T03:50:32.611Z,3.92
2022-12-03T03:53:02.717Z,4.40
2022-12-03T03:55:30.806Z,4.22
2022-12-03T03:57:57.656Z,4.70
2022-12-03T04:00:25.256Z,4.30
2022-12-03T04:03:07.247Z,4.45
2022-12-03T04:05:34.055Z,5.13
2022-12-03T04:08:00.859Z,4.80
2022-12-03T04:10:27.801Z,5.35
2022-12-03T04:12:54.585Z,5.72
2022-12-03T04:15:21.504Z,5.78
2022-12-03T04:17:48.437Z,4.80
2022-12-03T04:20:15.255Z,5.35
2022-12-03T04:22:42.018Z,4.72
2022-12-03T04:25:10.415Z,4.95
2022-12-03T04:27:37.236Z,4.90
2022-12-03T04:30:04.307Z,4.60
2022-12-03T04:32:31.116Z,4.80
2022-12-03T04:34:57.874Z,4.90
2022-12-03T04:37:24.681Z,4.80
2022-12-03T04:39:51.527Z,4.90
2022-12-03T04:42:18.313Z,5.47
2022-12-03T04:44:45.124Z,4.45
2022-12-03T04:47:17.345Z,4.63
2022-12-03T04:49:46.701Z,4.70
2022-12-03T04:52:15.310Z,4.35
2022-12-03T04:54:43.145Z,4.80
2022-12-03T04:57:10.619Z,4.53
2022-12-03T04:59:38.347Z,4.35
2022-12-03T05:02:06.419Z,4.22
2022-12-03T05:04:33.879Z,4.72
2022-12-03T05:07:00.671Z,5.07
2022-12-03T05:09:27.480Z,5.63
2022-12-03T05:11:54.321Z,5.32
2022-12-03T05:14:21.155Z,5.70
2022-12-03T05:16:47.969Z,4.65
2022-12-03T05:19:14.853Z,4.50
2022-12-03T05:21:41.651Z,4.32
2022-12-03T05:24:08.504Z,4.07
2022-12-03T05:26:35.301Z,3.42
2022-12-03T05:29:02.066Z,4.32
2022-12-03T05:31:28.911Z,4.27
2022-12-03T05:33:55.823Z,3.80
2022-12-03T05:36:22.593Z,4.60
2022-12-03T05:38:49.406Z,4.80
2022-12-03T05:41:16.170Z,4.38
2022-12-03T05:43:42.945Z,4.10
2022-12-03T05:46:09.719Z,4.38
2022-12-03T05:48:36.516Z,4.03
2022-12-03T05:51:03.646Z,3.97
2022-12-03T05:53:30.433Z,4.38
2022-12-03T05:55:57.242Z,4.67
2022-12-03T05:58:24.144Z,4.65
2022-12-03T06:00:50.908Z,4.53
2022-12-03T06:03:17.805Z,4.97
2022-12-03T06:05:44.753Z,4.07
2022-12-03T06:08:11.573Z,4.53
2022-12-03T06:10:38.487Z,5.50
2022-12-03T06:13:05.254Z,5.28
2022-12-03T06:15:32.099Z,5.15
2022-12-03T06:17:58.838Z,4.80
2022-12-03T06:20:25.636Z,4.60
2022-12-03T06:22:52.446Z,5.43
2022-12-03T06:25:19.230Z,5.28
2022-12-03T06:27:46.519Z,5.05
2022-12-03T06:30:14.308Z,5.13
2022-12-03T06:32:41.198Z,5.80
2022-12-03T06:35:08.539Z,4.80
2022-12-03T06:37:35.370Z,5.63
2022-12-03T06:40:02.180Z,5.25
2022-12-03T06:42:29.081Z,5.13
2022-12-03T06:44:56.149Z,4.93
2022-12-03T06:47:23.141Z,5.10
2022-12-03T06:49:49.960Z,5.10
2022-12-03T06:52:16.679Z,4.53
2022-12-03T06:54:43.500Z,4.20
2022-12-03T06:57:10.239Z,4.43
2022-12-03T06:59:37.020Z,4.65
2022-12-03T07:02:05.074Z,4.25
2022-12-03T07:04:32.034Z,4.55
2022-12-03T07:06:58.821Z,4.55
2022-12-03T07:09:25.640Z,4.80
2022-12-03T07:11:52.394Z,4.75
2022-12-03T07:14:19.155Z,5.07
2022-12-03T07:16:46.055Z,4.82
2022-12-03T07:19:12.824Z,5.40
2022-12-03T07:21:39.872Z,5.80
2022-12-03T07:24:06.840Z,5.28
2022-12-03T07:26:33.616Z,5.63
2022-12-03T07:29:00.444Z,5.90
2022-12-03T07:31:27.431Z,5.95
2022-12-03T07:33:54.892Z,5.70
2022-12-03T07:36:21.788Z,6.28
2022-12-03T07:38:49.125Z,6.18
2022-12-03T07:41:15.930Z,6.20
2022-12-03T07:43:42.789Z,5.82
2022-12-03T07:46:09.618Z,6.40
2022-12-03T07:48:36.495Z,5.68
2022-12-03T07:51:03.299Z,5.72
2022-12-03T07:53:30.056Z,5.78
2022-12-03T07:55:56.828Z,6.25
2022-12-03T07:58:23.677Z,5.97
2022-12-03T08:00:50.489Z,6.28
2022-12-03T08:03:17.229Z,6.63
2022-12-03T08:05:45.898Z,6.70
2022-12-03T08:08:12.801Z,6.65
2022-12-03T08:10:39.611Z,6.43
2022-12-03T08:13:17.950Z,7.35
2022-12-03T08:15:45.119Z,6.72
2022-12-03T08:18:22.343Z,6.35
2022-12-03T08:20:51.478Z,7.18
2022-12-03T08:23:21.709Z,7.40
2022-12-03T08:25:50.268Z,7.78
2022-12-03T08:28:26.738Z,7.75
2022-12-03T08:31:12.977Z,7.35
2022-12-03T08:33:40.560Z,8.18
2022-12-03T08:36:15.320Z,7.10
2022-12-03T08:38:54.792Z,7.90
2022-12-03T08:41:22.205Z,7.35
2022-12-03T08:43:49.132Z,7.65
2022-12-03T08:46:19.258Z,7.75
2022-12-03T08:48:49.029Z,7.63
2022-12-03T08:51:25.723Z,7.78
2022-12-03T08:54:04.217Z,7.95
2022-12-03T08:56:35.880Z,7.65
2022-12-03T08:59:32.194Z,7.78
2022-12-03T09:01:59.883Z,7.43
2022-12-03T09:04:46.013Z,8.05
2022-12-03T09:07:12.847Z,7.75
2022-12-03T09:09:39.730Z,7.68
2022-12-03T09:12:06.704Z,8.57
2022-12-03T09:14:33.666Z,7.97
2022-12-03T09:17:00.593Z,6.95
2022-12-03T09:19:28.610Z,7.25
2022-12-03T09:21:55.488Z,7.47
2022-12-03T09:24:22.377Z,8.00
2022-12-03T09:26:49.578Z,7.37
2022-12-03T09:29:16.352Z,8.13
2022-12-03T09:31:43.472Z,7.60
2022-12-03T09:34:11.223Z,8.57
2022-12-03T09:36:38.152Z,8.07
2022-12-03T09:39:04.950Z,7.40
2022-12-03T09:41:31.704Z,8.95
2022-12-03T09:44:06.194Z,8.57
2022-12-03T09:46:36.821Z,8.65
2022-12-03T09:49:06.614Z,8.38
2022-12-03T09:51:36.639Z,8.20
2022-12-03T09:54:05.631Z,8.30
2022-12-03T09:56:37.573Z,8.80
2022-12-03T09:59:14.038Z,8.00
2022-12-03T10:01:41.106Z,8.15
2022-12-03T10:04:08.501Z,8.40
2022-12-03T10:06:37.903Z,8.68
2022-12-03T10:09:12.533Z,8.30
2022-12-03T10:11:39.464Z,8.93
2022-12-03T10:14:06.643Z,8.90
2022-12-03T10:16:41.647Z,8.80
2022-12-03T10:19:19.363Z,7.43
2022-12-03T10:21:46.228Z,8.05
2022-12-03T10:24:28.084Z,8.13
2022-12-03T10:26:58.147Z,7.10
2022-12-03T10:29:35.946Z,7.50
2022-12-03T10:32:06.593Z,7.55
2022-12-03T10:34:36.388Z,7.80
2022-12-03T10:37:23.455Z,6.93
2022-12-03T10:40:03.127Z,7.80
2022-12-03T10:42:34.820Z,6.83
2022-12-03T10:45:17.476Z,7.53
2022-12-03T10:48:02.741Z,7.35
2022-12-03T10:50:29.616Z,6.65
2022-12-03T10:52:56.437Z,7.20
2022-12-03T10:55:23.637Z,7.00
2022-12-03T10:57:50.541Z,7.47
2022-12-03T11:00:19.320Z,7.30
2022-12-03T11:02:54.668Z,7.05
2022-12-03T11:05:26.910Z,6.90
2022-12-03T11:07:54.239Z,7.23
2022-12-03T11:10:21.842Z,6.75
2022-12-03T11:13:27.001Z,6.60
2022-12-03T11:15:53.986Z,6.53
2022-12-03T11:18:37.430Z,7.38
2022-12-03T11:21:04.341Z,7.93
2022-12-03T11:23:46.392Z,7.15
2022-12-03T11:26:19.472Z,7.60
2022-12-03T11:28:46.647Z,7.35
2022-12-03T11:31:37.032Z,8.32
2022-12-03T11:34:18.983Z,8.30
2022-12-03T11:37:10.624Z,7.50
2022-12-03T11:39:49.424Z,7.80
2022-12-03T11:42:22.205Z,8.57
2022-12-03T11:45:15.654Z,8.65
2022-12-03T11:47:45.056Z,8.67
2022-12-03T11:50:40.438Z,10.38
2022-12-03T11:53:24.781Z,10.35
2022-12-03T11:56:05.264Z,9.35
2022-12-03T11:58:32.788Z,8.90
2022-12-03T12:01:02.756Z,8.70
2022-12-03T12:03:33.613Z,9.05
2022-12-03T12:06:04.255Z,8.45
2022-12-03T12:08:32.238Z,8.85
2022-12-03T12:10:59.837Z,8.15
2022-12-03T12:13:32.521Z,8.60
2022-12-03T12:16:06.805Z,9.05
2022-12-03T12:18:45.608Z,8.20
2022-12-03T12:21:43.144Z,8.07
2022-12-03T12:24:40.146Z,7.80
2022-12-03T12:27:09.787Z,8.40
2022-12-03T12:29:39.210Z,8.80
2022-12-03T12:32:08.695Z,9.18
2022-12-03T12:34:38.272Z,9.30
2022-12-03T12:37:19.903Z,8.63
2022-12-03T12:39:53.683Z,9.17
2022-12-03T12:42:29.793Z,8.75
2022-12-03T12:45:13.750Z,7.93
2022-12-03T12:47:48.914Z,9.52
2022-12-03T12:50:18.090Z,10.07
2022-12-03T12:52:52.435Z,9.90
2022-12-03T12:55:20.922Z,9.25
2022-12-03T12:57:48.394Z,9.95
2022-12-03T13:00:18.770Z,10.02
2022-12-03T13:02:51.900Z,10.25
2022-12-03T13:05:18.883Z,9.70
2022-12-03T13:07:46.104Z,9.30
2022-12-03T13:10:27.505Z,9.93
2022-12-03T13:12:54.571Z,10.48
2022-12-03T13:15:58.767Z,10.38
2022-12-03T13:18:33.444Z,10.03
2022-12-03T13:21:11.421Z,10.68
2022-12-03T13:23:40.432Z,10.38
2022-12-03T13:26:32.824Z,10.38
2022-12-03T13:29:12.641Z,10.52
2022-12-03T13:31:43.890Z,10.63
2022-12-03T13:34:21.372Z,10.93
2022-12-03T13:36:57.545Z,10.68
2022-12-03T13:39:32.758Z,10.27
2022-12-03T13:42:15.658Z,10.40
2022-12-03T13:44:49.395Z,10.60
2022-12-03T13:47:19.589Z,11.23
2022-12-03T13:50:21.386Z,10.35
2022-12-03T13:52:48.517Z,10.90
2022-12-03T13:55:24.714Z,11.52
2022-12-03T13:57:51.537Z,11.53
2022-12-03T14:00:18.828Z,11.23
2022-12-03T14:02:45.825Z,10.75
2022-12-03T14:05:18.529Z,10.55
2022-12-03T14:07:45.389Z,11.57
2022-12-03T14:10:13.507Z,11.13
2022-12-03T14:12:40.294Z,10.32
2022-12-03T14:15:07.551Z,11.40
2022-12-03T14:17:34.478Z,11.65
2022-12-03T14:20:01.318Z,11.65
2022-12-03T14:22:28.743Z,11.93
2022-12-03T14:24:55.991Z,11.18
2022-12-03T14:27:24.061Z,13.07
2022-12-03T14:29:51.648Z,12.45
2022-12-03T14:32:18.914Z,12.35
2022-12-03T14:34:45.856Z,12.87
2022-12-03T14:37:12.711Z,13.15
2022-12-03T14:39:39.602Z,13.73
2022-12-03T14:42:06.622Z,13.65
2022-12-03T14:44:33.452Z,12.45
2022-12-03T14:47:01.017Z,12.27
2022-12-03T14:49:27.788Z,12.85
2022-12-03T14:51:54.597Z,12.63
2022-12-03T14:54:21.527Z,12.30
2022-12-03T14:56:48.991Z,12.57
2022-12-03T14:59:15.781Z,12.77
2022-12-03T15:01:43.674Z,12.27
2022-12-03T15:04:10.583Z,13.07
2022-12-03T15:06:37.264Z,12.98
2022-12-03T15:09:04.305Z,12.30
2022-12-03T15:11:31.694Z,13.23
2022-12-03T15:13:58.988Z,12.65
2022-12-03T15:16:25.853Z,13.93
2022-12-03T15:18:52.650Z,13.02
2022-12-03T15:21:19.832Z,13.38
2022-12-03T15:23:46.939Z,14.27
2022-12-03T15:26:13.700Z,13.60
2022-12-03T15:28:45.313Z,13.98
2022-12-03T15:31:15.058Z,13.30
2022-12-03T15:33:41.898Z,12.80
2022-12-03T15:36:09.328Z,14.40
2022-12-03T15:38:36.131Z,13.18
2022-12-03T15:41:03.076Z,13.00
2022-12-03T15:43:29.970Z,12.95
2022-12-03T15:45:57.261Z,12.00
2022-12-03T15:48:24.343Z,12.27
2022-12-03T15:50:51.537Z,12.88
2022-12-03T15:53:18.842Z,12.18
2022-12-03T15:55:45.986Z,11.77
2022-12-03T15:58:12.919Z,11.85
2022-12-03T16:00:40.239Z,10.60
2022-12-03T16:03:07.397Z,11.20
2022-12-03T16:05:34.320Z,11.95
2022-12-03T16:08:03.004Z,16.58
2022-12-03T16:10:30.186Z,10.77
2022-12-03T16:12:57.028Z,10.83
2022-12-03T16:15:30.352Z,11.90
2022-12-03T16:17:59.547Z,12.32
2022-12-03T16:20:26.803Z,11.13
2022-12-03T16:22:53.654Z,11.23
2022-12-03T16:25:21.615Z,11.57
2022-12-03T16:27:48.698Z,10.65
2022-12-03T16:30:17.149Z,12.38
2022-12-03T16:32:44.163Z,11.10
2022-12-03T16:35:11.020Z,11.52
2022-12-03T16:37:37.955Z,10.60
2022-12-03T16:40:05.426Z,12.07
2022-12-03T16:42:32.534Z,11.07
2022-12-03T16:45:00.026Z,10.20
2022-12-03T16:47:33.450Z,10.70
2022-12-03T16:50:02.322Z,11.23
2022-12-03T16:52:29.305Z,10.70
2022-12-03T16:54:56.243Z,10.38
2022-12-03T16:57:27.566Z,10.77
2022-12-03T16:59:57.546Z,10.95
2022-12-03T17:02:24.917Z,11.43
2022-12-03T17:04:52.676Z,10.43
2022-12-03T17:07:19.708Z,10.52
2022-12-03T17:09:46.787Z,10.63
2022-12-03T17:12:14.868Z,11.55
2022-12-03T17:14:41.939Z,11.10
2022-12-03T17:17:08.941Z,11.05
2022-12-03T17:19:36.008Z,11.20
2022-12-03T17:22:03.187Z,11.20
2022-12-03T17:24:30.139Z,11.48
2022-12-03T17:26:57.007Z,11.17
2022-12-03T17:29:23.986Z,11.75
2022-12-03T17:31:51.054Z,11.30
2022-12-03T17:34:18.401Z,11.63
2022-12-03T17:36:45.303Z,11.77
2022-12-03T17:39:12.167Z,11.30
2022-12-03T17:41:39.093Z,10.10
2022-12-03T17:44:10.682Z,12.05
2022-12-03T17:46:39.928Z,11.18
2022-12-03T17:49:07.249Z,11.50
2022-12-03T17:51:34.898Z,11.20
2022-12-03T17:54:01.795Z,11.73
2022-12-03T17:56:29.223Z,11.05
2022-12-03T17:58:56.368Z,12.00
2022-12-03T18:01:23.494Z,12.35
2022-12-03T18:03:50.395Z,12.23
2022-12-03T18:06:17.397Z,11.85
2022-12-03T18:08:44.375Z,12.15
2022-12-03T18:11:12.207Z,12.63
2022-12-03T18:13:39.732Z,11.85
2022-12-03T18:16:07.233Z,13.20
2022-12-03T18:18:41.079Z,12.43
2022-12-03T18:21:08.380Z,12.82
2022-12-03T18:23:38.854Z,13.30
2022-12-03T18:26:07.008Z,12.35
2022-12-03T18:28:34.492Z,12.30
2022-12-03T18:31:02.298Z,11.68
2022-12-03T18:33:29.341Z,12.38
2022-12-03T18:35:58.406Z,12.82
2022-12-03T18:38:30.132Z,13.48
2022-12-03T18:40:58.204Z,13.13
2022-12-03T18:43:27.139Z,13.48
2022-12-03T18:45:59.427Z,13.27
2022-12-03T18:48:26.368Z,13.13
2022-12-03T18:50:53.733Z,13.52
2022-12-03T18:53:21.831Z,13.20
2022-12-03T18:55:49.103Z,13.05
2022-12-03T18:58:18.346Z,13.65
2022-12-03T19:00:48.104Z,12.95
2022-12-03T19:03:15.772Z,12.40
2022-12-03T19:05:44.594Z,12.23
2022-12-03T19:08:14.924Z,12.20
2022-12-03T19:10:43.524Z,13.45
2022-12-03T19:13:12.156Z,12.95
2022-12-03T19:15:39.993Z,12.50
2022-12-03T19:18:07.690Z,12.97
2022-12-03T19:20:35.443Z,13.32
2022-12-03T19:23:03.107Z,12.63
2022-12-03T19:25:30.760Z,12.25
2022-12-03T19:27:58.547Z,12.50
2022-12-03T19:30:26.975Z,12.03
2022-12-03T19:32:54.416Z,10.80
2022-12-03T19:35:22.347Z,12.20
2022-12-03T19:37:51.016Z,12.27
2022-12-03T19:40:19.848Z,11.65
2022-12-03T19:42:47.609Z,10.67
2022-12-03T19:45:14.821Z,10.82
2022-12-03T19:47:44.710Z,10.48
2022-12-03T19:50:17.954Z,10.35
2022-12-03T19:52:49.921Z,10.70
2022-12-03T19:55:18.123Z,10.30
2022-12-03T19:57:46.336Z,10.63
2022-12-03T20:00:15.257Z,10.40
2022-12-03T20:02:43.148Z,10.48
2022-12-03T20:05:11.687Z,10.30
2022-12-03T20:07:39.648Z,10.70
2022-12-03T20:10:07.805Z,10.77
2022-12-03T20:12:36.885Z,11.05
2022-12-03T20:15:05.300Z,10.75
2022-12-03T20:17:34.043Z,10.43
2022-12-03T20:20:01.578Z,10.47
2022-12-03T20:22:31.336Z,11.60
2022-12-03T20:24:59.138Z,11.68
2022-12-03T20:27:27.559Z,11.60
2022-12-03T20:29:55.534Z,11.68
2022-12-03T20:32:23.125Z,12.37
2022-12-03T20:34:50.234Z,12.55
2022-12-03T20:37:18.510Z,11.35
2022-12-03T20:39:46.488Z,12.57
2022-12-03T20:42:14.842Z,12.05
2022-12-03T20:44:42.573Z,12.23
2022-12-03T20:47:10.275Z,12.55
2022-12-03T20:49:38.201Z,11.55
2022-12-03T20:52:06.951Z,11.02
2022-12-03T20:54:34.850Z,11.88
2022-12-03T20:57:02.599Z,12.70
2022-12-03T20:59:30.130Z,14.32
2022-12-03T21:01:57.724Z,12.68
2022-12-03T21:04:25.393Z,11.50
2022-12-03T21:06:52.944Z,12.07
2022-12-03T21:09:21.403Z,11.33
2022-12-03T21:11:49.939Z,12.23
2022-12-03T21:14:17.511Z,11.88
2022-12-03T21:17:07.455Z,12.32
2022-12-03T21:19:34.089Z,12.63
2022-12-03T21:22:01.405Z,12.27
2022-12-03T21:24:54.174Z,12.05
2022-12-03T21:27:21.957Z,12.10
2022-12-03T21:29:49.328Z,12.35
2022-12-03T21:32:16.475Z,12.93
2022-12-03T21:34:43.906Z,11.90
2022-12-03T21:37:11.027Z,12.10
2022-12-03T21:39:38.389Z,12.73
2022-12-03T21:42:19.199Z,13.40
2022-12-03T21:44:54.002Z,12.73
2022-12-03T21:47:21.073Z,12.33
2022-12-03T21:49:48.121Z,12.45
2022-12-03T21:52:16.236Z,13.00
2022-12-03T21:54:43.222Z,12.57
2022-12-03T21:57:10.551Z,12.75
2022-12-03T21:59:37.795Z,12.97
2022-12-03T22:02:05.221Z,13.20
2022-12-03T22:04:33.690Z,12.77
2022-12-03T22:07:00.933Z,13.13
2022-12-03T22:09:28.023Z,12.55
2022-12-03T22:11:54.859Z,11.90
2022-12-03T22:14:21.610Z,12.98
2022-12-03T22:16:48.317Z,13.38
2022-12-03T22:19:15.104Z,12.10
2022-12-03T22:21:42.085Z,12.13
2022-12-03T22:24:09.015Z,11.53
2022-12-03T22:26:35.825Z,11.30
2022-12-03T22:29:02.971Z,12.73
2022-12-03T22:31:29.745Z,12.50
2022-12-03T22:33:56.638Z,12.68
2022-12-03T22:36:23.516Z,11.57
2022-12-03T22:38:51.200Z,12.35
2022-12-03T22:41:19.337Z,12.00
2022-12-03T22:43:47.529Z,12.93
2022-12-03T22:46:15.473Z,12.30
2022-12-03T22:48:43.636Z,12.03
2022-12-03T22:51:22.019Z,12.35
2022-12-03T22:53:57.273Z,11.73
2022-12-03T22:56:25.602Z,12.43
2022-12-03T22:58:52.439Z,12.13
2022-12-03T23:01:40.850Z,11.97
2022-12-03T23:04:10.650Z,12.75
2022-12-03T23:06:38.219Z,12.55
2022-12-03T23:09:06.629Z,11.80
2022-12-03T23:11:33.819Z,12.27
2022-12-03T23:14:01.213Z,12.13
2022-12-03T23:16:31.998Z,11.73
2022-12-03T23:19:00.421Z,12.20
2022-12-03T23:21:30.898Z,12.57
2022-12-03T23:24:02.824Z,12.25
2022-12-03T23:26:29.853Z,12.93
2022-12-03T23:28:56.772Z,12.07
2022-12-03T23:31:30.525Z,11.50
2022-12-03T23:33:58.759Z,12.63
2022-12-03T23:36:28.110Z,12.05
2022-12-03T23:38:55.001Z,11.57
2022-12-03T23:41:23.495Z,12.43
2022-12-03T23:43:50.313Z,13.25
2022-12-03T23:46:24.654Z,12.93
2022-12-03T23:48:52.172Z,13.00
2022-12-03T23:51:22.104Z,12.93
2022-12-03T23:53:48.985Z,12.77
2022-12-03T23:56:20.557Z,12.30
2022-12-03T23:58:47.817Z,12.25
